sensor_id;sensor_type;location;lat;lon;timestamp;temperature;humidity
8103;DHT22;4094;49.948;11.574;2023-04-28T00:01:14;13.30;52.80
8103;DHT22;4094;49.948;11.574;2023-04-28T00:03:43;13.30;52.90
8103;DHT22;4094;49.948;11.574;2023-04-28T00:06:13;13.30;53.10
8103;DHT22;4094;49.948;11.574;2023-04-28T00:08:42;13.20;53.10
8103;DHT22;4094;49.948;11.574;2023-04-28T00:11:11;13.20;53.10
8103;DHT22;4094;49.948;11.574;2023-04-28T00:13:42;13.30;53.20
8103;DHT22;4094;49.948;11.574;2023-04-28T00:16:11;13.20;53.10
8103;DHT22;4094;49.948;11.574;2023-04-28T00:18:41;13.20;53.10
8103;DHT22;4094;49.948;11.574;2023-04-28T00:21:10;13.30;53.20
8103;DHT22;4094;49.948;11.574;2023-04-28T00:23:39;13.30;53.20
8103;DHT22;4094;49.948;11.574;2023-04-28T00:26:09;13.30;53.20
8103;DHT22;4094;49.948;11.574;2023-04-28T00:28:42;13.30;53.20
8103;DHT22;4094;49.948;11.574;2023-04-28T00:31:12;13.30;53.10
8103;DHT22;4094;49.948;11.574;2023-04-28T00:33:43;13.30;53.30
8103;DHT22;4094;49.948;11.574;2023-04-28T00:36:12;13.40;53.30
8103;DHT22;4094;49.948;11.574;2023-04-28T00:38:42;13.40;53.20
8103;DHT22;4094;49.948;11.574;2023-04-28T00:41:11;13.40;53.00
8103;DHT22;4094;49.948;11.574;2023-04-28T00:43:47;13.40;52.90
8103;DHT22;4094;49.948;11.574;2023-04-28T00:46:20;13.40;53.20
8103;DHT22;4094;49.948;11.574;2023-04-28T00:48:51;13.50;53.20
8103;DHT22;4094;49.948;11.574;2023-04-28T00:51:20;13.50;53.20
8103;DHT22;4094;49.948;11.574;2023-04-28T00:53:50;13.50;53.30
8103;DHT22;4094;49.948;11.574;2023-04-28T00:56:19;13.50;53.20
8103;DHT22;4094;49.948;11.574;2023-04-28T00:58:50;13.50;53.40
8103;DHT22;4094;49.948;11.574;2023-04-28T01:01:20;13.50;53.40
8103;DHT22;4094;49.948;11.574;2023-04-28T01:03:49;13.50;53.40
8103;DHT22;4094;49.948;11.574;2023-04-28T01:06:19;13.50;53.30
8103;DHT22;4094;49.948;11.574;2023-04-28T01:08:51;13.50;53.60
8103;DHT22;4094;49.948;11.574;2023-04-28T01:11:20;13.50;53.30
8103;DHT22;4094;49.948;11.574;2023-04-28T01:14:11;13.50;53.40
8103;DHT22;4094;49.948;11.574;2023-04-28T01:16:42;13.50;53.00
8103;DHT22;4094;49.948;11.574;2023-04-28T01:19:19;13.50;52.90
8103;DHT22;4094;49.948;11.574;2023-04-28T01:21:51;13.50;52.90
8103;DHT22;4094;49.948;11.574;2023-04-28T01:24:23;13.60;52.70
8103;DHT22;4094;49.948;11.574;2023-04-28T01:26:52;13.60;53.10
8103;DHT22;4094;49.948;11.574;2023-04-28T01:29:22;13.60;53.00
8103;DHT22;4094;49.948;11.574;2023-04-28T01:31:52;13.60;53.00
8103;DHT22;4094;49.948;11.574;2023-04-28T01:34:21;13.60;52.90
8103;DHT22;4094;49.948;11.574;2023-04-28T01:36:50;13.60;52.60
8103;DHT22;4094;49.948;11.574;2023-04-28T01:39:19;13.60;52.20
8103;DHT22;4094;49.948;11.574;2023-04-28T01:41:50;13.60;51.70
8103;DHT22;4094;49.948;11.574;2023-04-28T01:44:20;13.60;51.70
8103;DHT22;4094;49.948;11.574;2023-04-28T01:46:49;13.70;51.90
8103;DHT22;4094;49.948;11.574;2023-04-28T01:49:19;13.70;51.80
8103;DHT22;4094;49.948;11.574;2023-04-28T01:51:49;13.70;51.60
8103;DHT22;4094;49.948;11.574;2023-04-28T01:54:18;13.70;51.50
8103;DHT22;4094;49.948;11.574;2023-04-28T01:56:48;13.70;51.40
8103;DHT22;4094;49.948;11.574;2023-04-28T01:59:20;13.70;51.30
8103;DHT22;4094;49.948;11.574;2023-04-28T02:01:50;13.70;51.20
8103;DHT22;4094;49.948;11.574;2023-04-28T02:04:19;13.70;51.10
8103;DHT22;4094;49.948;11.574;2023-04-28T02:06:49;13.70;51.10
8103;DHT22;4094;49.948;11.574;2023-04-28T02:09:18;13.80;51.10
8103;DHT22;4094;49.948;11.574;2023-04-28T02:11:47;13.70;51.10
8103;DHT22;4094;49.948;11.574;2023-04-28T02:14:16;13.70;51.00
8103;DHT22;4094;49.948;11.574;2023-04-28T02:16:47;13.70;51.00
8103;DHT22;4094;49.948;11.574;2023-04-28T02:19:16;13.70;51.00
8103;DHT22;4094;49.948;11.574;2023-04-28T02:21:45;13.70;51.00
8103;DHT22;4094;49.948;11.574;2023-04-28T02:24:16;13.70;51.00
8103;DHT22;4094;49.948;11.574;2023-04-28T02:26:46;13.70;51.10
8103;DHT22;4094;49.948;11.574;2023-04-28T02:29:15;13.70;51.10
8103;DHT22;4094;49.948;11.574;2023-04-28T02:31:44;13.80;51.20
8103;DHT22;4094;49.948;11.574;2023-04-28T02:34:16;13.80;51.20
8103;DHT22;4094;49.948;11.574;2023-04-28T02:36:45;13.80;51.10
8103;DHT22;4094;49.948;11.574;2023-04-28T02:39:15;13.80;50.90
8103;DHT22;4094;49.948;11.574;2023-04-28T02:41:44;13.80;50.90
8103;DHT22;4094;49.948;11.574;2023-04-28T02:44:14;13.70;50.80
8103;DHT22;4094;49.948;11.574;2023-04-28T02:46:44;13.70;50.90
8103;DHT22;4094;49.948;11.574;2023-04-28T02:49:13;13.70;50.80
8103;DHT22;4094;49.948;11.574;2023-04-28T02:51:45;13.70;50.80
8103;DHT22;4094;49.948;11.574;2023-04-28T02:54:14;13.70;50.80
8103;DHT22;4094;49.948;11.574;2023-04-28T02:56:44;13.70;50.90
8103;DHT22;4094;49.948;11.574;2023-04-28T02:59:14;13.70;50.90
8103;DHT22;4094;49.948;11.574;2023-04-28T03:01:43;13.70;50.90
8103;DHT22;4094;49.948;11.574;2023-04-28T03:04:13;13.60;50.90
8103;DHT22;4094;49.948;11.574;2023-04-28T03:06:43;13.60;50.90
8103;DHT22;4094;49.948;11.574;2023-04-28T03:09:14;13.60;51.00
8103;DHT22;4094;49.948;11.574;2023-04-28T03:11:43;13.60;51.00
8103;DHT22;4094;49.948;11.574;2023-04-28T03:14:13;13.60;51.00
8103;DHT22;4094;49.948;11.574;2023-04-28T03:16:44;13.60;51.00
8103;DHT22;4094;49.948;11.574;2023-04-28T03:19:14;13.60;51.10
8103;DHT22;4094;49.948;11.574;2023-04-28T03:21:43;13.60;51.10
8103;DHT22;4094;49.948;11.574;2023-04-28T03:24:14;13.50;51.10
8103;DHT22;4094;49.948;11.574;2023-04-28T03:26:45;13.50;51.20
8103;DHT22;4094;49.948;11.574;2023-04-28T03:29:14;13.50;51.20
8103;DHT22;4094;49.948;11.574;2023-04-28T03:31:43;13.50;51.20
8103;DHT22;4094;49.948;11.574;2023-04-28T03:34:13;13.50;51.20
8103;DHT22;4094;49.948;11.574;2023-04-28T03:36:42;13.50;51.20
8103;DHT22;4094;49.948;11.574;2023-04-28T03:39:21;13.50;51.30
8103;DHT22;4094;49.948;11.574;2023-04-28T03:41:50;13.50;51.30
8103;DHT22;4094;49.948;11.574;2023-04-28T03:44:55;13.50;51.30
8103;DHT22;4094;49.948;11.574;2023-04-28T03:47:24;13.50;51.20
8103;DHT22;4094;49.948;11.574;2023-04-28T03:49:54;13.50;51.40
8103;DHT22;4094;49.948;11.574;2023-04-28T03:52:25;13.50;51.30
8103;DHT22;4094;49.948;11.574;2023-04-28T03:54:56;13.50;51.30
8103;DHT22;4094;49.948;11.574;2023-04-28T03:57:26;13.50;51.20
8103;DHT22;4094;49.948;11.574;2023-04-28T03:59:56;13.50;51.20
8103;DHT22;4094;49.948;11.574;2023-04-28T04:02:25;13.50;51.40
8103;DHT22;4094;49.948;11.574;2023-04-28T04:04:55;13.50;51.10
8103;DHT22;4094;49.948;11.574;2023-04-28T04:07:24;13.50;51.10
8103;DHT22;4094;49.948;11.574;2023-04-28T04:09:54;13.60;51.00
8103;DHT22;4094;49.948;11.574;2023-04-28T04:12:25;13.60;51.10
8103;DHT22;4094;49.948;11.574;2023-04-28T04:14:54;13.60;51.00
8103;DHT22;4094;49.948;11.574;2023-04-28T04:17:24;13.60;51.00
8103;DHT22;4094;49.948;11.574;2023-04-28T04:19:53;13.60;51.00
8103;DHT22;4094;49.948;11.574;2023-04-28T04:22:23;13.60;51.00
8103;DHT22;4094;49.948;11.574;2023-04-28T04:24:52;13.60;51.10
8103;DHT22;4094;49.948;11.574;2023-04-28T04:27:22;13.60;51.20
8103;DHT22;4094;49.948;11.574;2023-04-28T04:29:53;13.60;51.70
8103;DHT22;4094;49.948;11.574;2023-04-28T04:32:23;13.60;51.20
8103;DHT22;4094;49.948;11.574;2023-04-28T04:34:53;13.60;51.10
8103;DHT22;4094;49.948;11.574;2023-04-28T04:37:22;13.60;51.10
8103;DHT22;4094;49.948;11.574;2023-04-28T04:40:03;13.60;51.20
8103;DHT22;4094;49.948;11.574;2023-04-28T04:42:39;13.50;51.00
8103;DHT22;4094;49.948;11.574;2023-04-28T04:45:17;13.60;51.10
8103;DHT22;4094;49.948;11.574;2023-04-28T04:47:47;13.60;51.00
8103;DHT22;4094;49.948;11.574;2023-04-28T04:50:17;13.50;51.00
8103;DHT22;4094;49.948;11.574;2023-04-28T04:52:46;13.50;51.00
8103;DHT22;4094;49.948;11.574;2023-04-28T04:55:15;13.50;51.00
8103;DHT22;4094;49.948;11.574;2023-04-28T04:57:45;13.50;51.00
8103;DHT22;4094;49.948;11.574;2023-04-28T05:00:25;13.50;51.00
8103;DHT22;4094;49.948;11.574;2023-04-28T05:02:54;13.50;50.90
8103;DHT22;4094;49.948;11.574;2023-04-28T05:05:24;13.60;51.00
8103;DHT22;4094;49.948;11.574;2023-04-28T05:08:17;13.60;51.00
8103;DHT22;4094;49.948;11.574;2023-04-28T05:10:47;13.60;51.00
8103;DHT22;4094;49.948;11.574;2023-04-28T05:13:17;13.60;50.80
8103;DHT22;4094;49.948;11.574;2023-04-28T05:15:51;13.60;50.70
8103;DHT22;4094;49.948;11.574;2023-04-28T05:18:32;13.60;50.80
8103;DHT22;4094;49.948;11.574;2023-04-28T05:21:02;13.60;51.40
8103;DHT22;4094;49.948;11.574;2023-04-28T05:23:33;13.60;50.90
8103;DHT22;4094;49.948;11.574;2023-04-28T05:26:03;13.60;50.90
8103;DHT22;4094;49.948;11.574;2023-04-28T05:28:32;13.60;50.90
8103;DHT22;4094;49.948;11.574;2023-04-28T05:31:03;13.60;51.00
8103;DHT22;4094;49.948;11.574;2023-04-28T05:33:32;13.60;51.00
8103;DHT22;4094;49.948;11.574;2023-04-28T05:36:02;13.60;51.00
8103;DHT22;4094;49.948;11.574;2023-04-28T05:38:31;13.60;51.00
8103;DHT22;4094;49.948;11.574;2023-04-28T05:41:01;13.60;51.00
8103;DHT22;4094;49.948;11.574;2023-04-28T05:43:30;13.60;51.30
8103;DHT22;4094;49.948;11.574;2023-04-28T05:46:00;13.60;51.40
8103;DHT22;4094;49.948;11.574;2023-04-28T05:48:31;13.60;51.90
8103;DHT22;4094;49.948;11.574;2023-04-28T05:51:00;13.60;51.90
8103;DHT22;4094;49.948;11.574;2023-04-28T05:53:30;13.60;52.10
8103;DHT22;4094;49.948;11.574;2023-04-28T05:56:00;13.60;52.30
8103;DHT22;4094;49.948;11.574;2023-04-28T05:58:29;13.60;52.50
8103;DHT22;4094;49.948;11.574;2023-04-28T06:00:59;13.60;52.50
8103;DHT22;4094;49.948;11.574;2023-04-28T06:03:31;13.60;52.50
8103;DHT22;4094;49.948;11.574;2023-04-28T06:06:01;13.60;52.60
8103;DHT22;4094;49.948;11.574;2023-04-28T06:08:33;13.60;52.80
8103;DHT22;4094;49.948;11.574;2023-04-28T06:11:05;13.60;52.80
8103;DHT22;4094;49.948;11.574;2023-04-28T06:13:34;13.60;52.80
8103;DHT22;4094;49.948;11.574;2023-04-28T06:16:04;13.60;53.00
8103;DHT22;4094;49.948;11.574;2023-04-28T06:18:35;13.60;53.00
8103;DHT22;4094;49.948;11.574;2023-04-28T06:21:05;13.60;53.20
8103;DHT22;4094;49.948;11.574;2023-04-28T06:23:35;13.60;53.20
8103;DHT22;4094;49.948;11.574;2023-04-28T06:26:07;13.60;53.40
8103;DHT22;4094;49.948;11.574;2023-04-28T06:28:39;13.70;53.20
8103;DHT22;4094;49.948;11.574;2023-04-28T06:31:09;13.60;53.10
8103;DHT22;4094;49.948;11.574;2023-04-28T06:33:41;13.70;53.20
8103;DHT22;4094;49.948;11.574;2023-04-28T06:36:11;13.70;53.10
8103;DHT22;4094;49.948;11.574;2023-04-28T06:38:44;13.70;53.20
8103;DHT22;4094;49.948;11.574;2023-04-28T06:41:13;13.70;53.20
8103;DHT22;4094;49.948;11.574;2023-04-28T06:43:46;13.70;53.00
8103;DHT22;4094;49.948;11.574;2023-04-28T06:46:21;13.70;53.10
8103;DHT22;4094;49.948;11.574;2023-04-28T06:48:52;13.70;53.10
8103;DHT22;4094;49.948;11.574;2023-04-28T06:51:21;13.70;53.00
8103;DHT22;4094;49.948;11.574;2023-04-28T06:53:51;13.70;53.00
8103;DHT22;4094;49.948;11.574;2023-04-28T06:56:21;13.70;53.40
8103;DHT22;4094;49.948;11.574;2023-04-28T06:58:50;13.70;52.90
8103;DHT22;4094;49.948;11.574;2023-04-28T07:01:20;13.70;53.00
8103;DHT22;4094;49.948;11.574;2023-04-28T07:03:49;13.70;52.90
8103;DHT22;4094;49.948;11.574;2023-04-28T07:06:20;13.70;53.00
8103;DHT22;4094;49.948;11.574;2023-04-28T07:08:50;13.70;53.10
8103;DHT22;4094;49.948;11.574;2023-04-28T07:11:20;13.70;53.10
8103;DHT22;4094;49.948;11.574;2023-04-28T07:13:50;13.70;53.10
8103;DHT22;4094;49.948;11.574;2023-04-28T07:16:21;13.70;52.90
8103;DHT22;4094;49.948;11.574;2023-04-28T07:18:51;13.70;52.90
8103;DHT22;4094;49.948;11.574;2023-04-28T07:21:22;13.80;53.10
8103;DHT22;4094;49.948;11.574;2023-04-28T07:23:51;13.80;53.00
8103;DHT22;4094;49.948;11.574;2023-04-28T07:26:24;13.80;52.90
8103;DHT22;4094;49.948;11.574;2023-04-28T07:28:54;13.80;52.80
8103;DHT22;4094;49.948;11.574;2023-04-28T07:31:24;13.80;52.80
8103;DHT22;4094;49.948;11.574;2023-04-28T07:33:57;13.90;52.70
8103;DHT22;4094;49.948;11.574;2023-04-28T07:36:27;13.90;52.70
8103;DHT22;4094;49.948;11.574;2023-04-28T07:38:59;13.90;52.90
8103;DHT22;4094;49.948;11.574;2023-04-28T07:41:28;13.90;52.70
8103;DHT22;4094;49.948;11.574;2023-04-28T07:43:57;13.90;52.80
8103;DHT22;4094;49.948;11.574;2023-04-28T07:46:34;13.90;53.00
8103;DHT22;4094;49.948;11.574;2023-04-28T07:49:06;13.90;52.90
8103;DHT22;4094;49.948;11.574;2023-04-28T07:51:42;13.90;52.90
8103;DHT22;4094;49.948;11.574;2023-04-28T07:54:12;13.90;52.90
8103;DHT22;4094;49.948;11.574;2023-04-28T07:56:42;13.90;53.00
8103;DHT22;4094;49.948;11.574;2023-04-28T07:59:11;13.90;53.20
8103;DHT22;4094;49.948;11.574;2023-04-28T08:01:41;13.90;53.40
8103;DHT22;4094;49.948;11.574;2023-04-28T08:04:13;13.90;53.70
8103;DHT22;4094;49.948;11.574;2023-04-28T08:06:44;14.00;53.80
8103;DHT22;4094;49.948;11.574;2023-04-28T08:09:13;13.90;54.10
8103;DHT22;4094;49.948;11.574;2023-04-28T08:11:43;13.90;54.10
8103;DHT22;4094;49.948;11.574;2023-04-28T08:14:12;13.90;54.30
8103;DHT22;4094;49.948;11.574;2023-04-28T08:16:42;13.90;54.50
8103;DHT22;4094;49.948;11.574;2023-04-28T08:19:12;13.90;54.70
8103;DHT22;4094;49.948;11.574;2023-04-28T08:21:43;13.90;55.00
8103;DHT22;4094;49.948;11.574;2023-04-28T08:24:12;13.80;55.20
8103;DHT22;4094;49.948;11.574;2023-04-28T08:26:42;13.90;55.50
8103;DHT22;4094;49.948;11.574;2023-04-28T08:29:11;13.90;55.90
8103;DHT22;4094;49.948;11.574;2023-04-28T08:31:41;13.80;56.30
8103;DHT22;4094;49.948;11.574;2023-04-28T08:34:11;13.90;56.50
8103;DHT22;4094;49.948;11.574;2023-04-28T08:36:45;13.90;56.60
8103;DHT22;4094;49.948;11.574;2023-04-28T08:39:14;13.80;56.90
8103;DHT22;4094;49.948;11.574;2023-04-28T08:41:43;13.80;57.10
8103;DHT22;4094;49.948;11.574;2023-04-28T08:44:13;13.80;57.50
8103;DHT22;4094;49.948;11.574;2023-04-28T08:46:44;13.80;57.60
8103;DHT22;4094;49.948;11.574;2023-04-28T08:49:17;13.80;58.00
8103;DHT22;4094;49.948;11.574;2023-04-28T08:51:50;13.70;58.40
8103;DHT22;4094;49.948;11.574;2023-04-28T08:54:27;13.70;58.70
8103;DHT22;4094;49.948;11.574;2023-04-28T08:56:59;13.70;58.90
8103;DHT22;4094;49.948;11.574;2023-04-28T08:59:30;13.70;59.10
8103;DHT22;4094;49.948;11.574;2023-04-28T09:01:59;13.70;59.50
8103;DHT22;4094;49.948;11.574;2023-04-28T09:04:29;13.60;59.40
8103;DHT22;4094;49.948;11.574;2023-04-28T09:07:00;13.60;59.80
8103;DHT22;4094;49.948;11.574;2023-04-28T09:09:30;13.70;59.90
8103;DHT22;4094;49.948;11.574;2023-04-28T09:12:03;13.70;60.20
8103;DHT22;4094;49.948;11.574;2023-04-28T09:14:33;13.70;60.20
8103;DHT22;4094;49.948;11.574;2023-04-28T09:17:09;13.70;60.50
8103;DHT22;4094;49.948;11.574;2023-04-28T09:19:41;13.70;60.50
8103;DHT22;4094;49.948;11.574;2023-04-28T09:22:12;13.70;60.70
8103;DHT22;4094;49.948;11.574;2023-04-28T09:24:53;13.70;61.00
8103;DHT22;4094;49.948;11.574;2023-04-28T09:27:26;13.70;61.20
8103;DHT22;4094;49.948;11.574;2023-04-28T09:29:56;13.70;61.40
8103;DHT22;4094;49.948;11.574;2023-04-28T09:32:25;13.70;61.50
8103;DHT22;4094;49.948;11.574;2023-04-28T09:34:55;13.80;61.90
8103;DHT22;4094;49.948;11.574;2023-04-28T09:37:26;13.80;61.70
8103;DHT22;4094;49.948;11.574;2023-04-28T09:40:04;13.80;61.90
8103;DHT22;4094;49.948;11.574;2023-04-28T09:42:34;13.80;62.50
8103;DHT22;4094;49.948;11.574;2023-04-28T09:45:06;13.80;62.30
8103;DHT22;4094;49.948;11.574;2023-04-28T09:47:36;13.80;62.40
8103;DHT22;4094;49.948;11.574;2023-04-28T09:50:08;13.80;62.60
8103;DHT22;4094;49.948;11.574;2023-04-28T09:52:41;13.90;62.70
8103;DHT22;4094;49.948;11.574;2023-04-28T09:55:12;13.90;62.80
8103;DHT22;4094;49.948;11.574;2023-04-28T09:57:43;14.00;62.80
8103;DHT22;4094;49.948;11.574;2023-04-28T10:00:17;14.00;63.10
8103;DHT22;4094;49.948;11.574;2023-04-28T10:02:48;14.00;63.00
8103;DHT22;4094;49.948;11.574;2023-04-28T10:05:20;14.10;63.30
8103;DHT22;4094;49.948;11.574;2023-04-28T10:07:51;14.10;63.20
8103;DHT22;4094;49.948;11.574;2023-04-28T10:10:22;14.10;63.70
8103;DHT22;4094;49.948;11.574;2023-04-28T10:12:54;14.20;63.80
8103;DHT22;4094;49.948;11.574;2023-04-28T10:15:23;14.20;64.20
8103;DHT22;4094;49.948;11.574;2023-04-28T10:17:53;14.30;64.40
8103;DHT22;4094;49.948;11.574;2023-04-28T10:20:23;14.40;64.90
8103;DHT22;4094;49.948;11.574;2023-04-28T10:23:05;14.50;64.80
8103;DHT22;4094;49.948;11.574;2023-04-28T10:25:48;14.60;64.90
8103;DHT22;4094;49.948;11.574;2023-04-28T10:28:21;14.60;64.40
8103;DHT22;4094;49.948;11.574;2023-04-28T10:31:08;14.70;64.30
8103;DHT22;4094;49.948;11.574;2023-04-28T10:33:38;14.70;64.90
8103;DHT22;4094;49.948;11.574;2023-04-28T10:36:07;14.70;64.60
8103;DHT22;4094;49.948;11.574;2023-04-28T10:39:07;14.70;65.00
8103;DHT22;4094;49.948;11.574;2023-04-28T10:41:37;14.80;65.20
8103;DHT22;4094;49.948;11.574;2023-04-28T10:44:40;14.90;65.20
8103;DHT22;4094;49.948;11.574;2023-04-28T10:47:10;15.00;64.80
8103;DHT22;4094;49.948;11.574;2023-04-28T10:50:08;15.10;64.80
8103;DHT22;4094;49.948;11.574;2023-04-28T10:52:47;15.20;64.30
8103;DHT22;4094;49.948;11.574;2023-04-28T10:55:32;15.10;63.60
8103;DHT22;4094;49.948;11.574;2023-04-28T10:58:31;15.10;63.30
8103;DHT22;4094;49.948;11.574;2023-04-28T11:01:23;15.10;63.30
8103;DHT22;4094;49.948;11.574;2023-04-28T11:03:54;15.00;63.20
8103;DHT22;4094;49.948;11.574;2023-04-28T11:06:31;14.90;63.20
8103;DHT22;4094;49.948;11.574;2023-04-28T11:09:04;14.90;63.60
8103;DHT22;4094;49.948;11.574;2023-04-28T11:12:08;14.90;63.90
8103;DHT22;4094;49.948;11.574;2023-04-28T11:14:38;14.80;64.20
8103;DHT22;4094;49.948;11.574;2023-04-28T11:17:08;14.80;64.20
8103;DHT22;4094;49.948;11.574;2023-04-28T11:19:42;14.80;64.70
8103;DHT22;4094;49.948;11.574;2023-04-28T11:22:15;14.70;65.00
8103;DHT22;4094;49.948;11.574;2023-04-28T11:24:54;14.70;65.40
8103;DHT22;4094;49.948;11.574;2023-04-28T11:27:27;14.70;66.00
8103;DHT22;4094;49.948;11.574;2023-04-28T11:29:57;14.60;66.30
8103;DHT22;4094;49.948;11.574;2023-04-28T11:32:28;14.60;66.50
8103;DHT22;4094;49.948;11.574;2023-04-28T11:34:57;14.60;66.90
8103;DHT22;4094;49.948;11.574;2023-04-28T11:37:26;14.60;67.10
8103;DHT22;4094;49.948;11.574;2023-04-28T11:39:56;14.60;67.40
8103;DHT22;4094;49.948;11.574;2023-04-28T11:42:27;14.60;67.70
8103;DHT22;4094;49.948;11.574;2023-04-28T11:44:56;14.60;68.00
8103;DHT22;4094;49.948;11.574;2023-04-28T11:47:29;14.60;68.10
8103;DHT22;4094;49.948;11.574;2023-04-28T11:50:00;14.60;68.50
8103;DHT22;4094;49.948;11.574;2023-04-28T11:52:30;14.60;68.30
8103;DHT22;4094;49.948;11.574;2023-04-28T11:54:59;14.60;68.70
8103;DHT22;4094;49.948;11.574;2023-04-28T11:57:30;14.60;68.60
8103;DHT22;4094;49.948;11.574;2023-04-28T12:00:13;14.60;68.90
8103;DHT22;4094;49.948;11.574;2023-04-28T12:02:46;14.70;69.70
8103;DHT22;4094;49.948;11.574;2023-04-28T12:05:16;14.60;69.50
8103;DHT22;4094;49.948;11.574;2023-04-28T12:07:47;14.70;69.60
8103;DHT22;4094;49.948;11.574;2023-04-28T12:10:17;14.70;69.50
8103;DHT22;4094;49.948;11.574;2023-04-28T12:12:49;14.70;69.90
8103;DHT22;4094;49.948;11.574;2023-04-28T12:15:20;14.70;70.00
8103;DHT22;4094;49.948;11.574;2023-04-28T12:17:52;14.70;70.10
8103;DHT22;4094;49.948;11.574;2023-04-28T12:20:35;14.80;70.20
8103;DHT22;4094;49.948;11.574;2023-04-28T12:23:05;14.80;70.50
8103;DHT22;4094;49.948;11.574;2023-04-28T12:25:42;14.90;70.30
8103;DHT22;4094;49.948;11.574;2023-04-28T12:28:14;14.90;70.70
8103;DHT22;4094;49.948;11.574;2023-04-28T12:30:43;14.90;70.40
8103;DHT22;4094;49.948;11.574;2023-04-28T12:33:22;15.00;70.30
8103;DHT22;4094;49.948;11.574;2023-04-28T12:35:52;15.00;70.50
8103;DHT22;4094;49.948;11.574;2023-04-28T12:38:22;15.00;70.60
8103;DHT22;4094;49.948;11.574;2023-04-28T12:40:51;15.10;70.50
8103;DHT22;4094;49.948;11.574;2023-04-28T12:43:23;15.10;70.40
8103;DHT22;4094;49.948;11.574;2023-04-28T12:45:54;15.10;70.50
8103;DHT22;4094;49.948;11.574;2023-04-28T12:48:23;15.10;70.10
8103;DHT22;4094;49.948;11.574;2023-04-28T12:50:54;15.10;69.80
8103;DHT22;4094;49.948;11.574;2023-04-28T12:53:24;15.10;69.60
8103;DHT22;4094;49.948;11.574;2023-04-28T12:55:54;15.10;69.90
8103;DHT22;4094;49.948;11.574;2023-04-28T12:58:24;15.10;69.90
8103;DHT22;4094;49.948;11.574;2023-04-28T13:00:54;15.20;70.40
8103;DHT22;4094;49.948;11.574;2023-04-28T13:03:23;15.20;70.50
8103;DHT22;4094;49.948;11.574;2023-04-28T13:05:54;15.20;70.80
8103;DHT22;4094;49.948;11.574;2023-04-28T13:08:23;15.20;70.80
8103;DHT22;4094;49.948;11.574;2023-04-28T13:10:53;15.20;71.00
8103;DHT22;4094;49.948;11.574;2023-04-28T13:13:22;15.30;71.10
8103;DHT22;4094;49.948;11.574;2023-04-28T13:15:53;15.30;71.10
8103;DHT22;4094;49.948;11.574;2023-04-28T13:18:22;15.30;71.10
8103;DHT22;4094;49.948;11.574;2023-04-28T13:20:51;15.30;71.00
8103;DHT22;4094;49.948;11.574;2023-04-28T13:23:21;15.40;71.00
8103;DHT22;4094;49.948;11.574;2023-04-28T13:25:50;15.40;71.00
8103;DHT22;4094;49.948;11.574;2023-04-28T13:28:19;15.40;71.10
8103;DHT22;4094;49.948;11.574;2023-04-28T13:30:49;15.40;71.70
8103;DHT22;4094;49.948;11.574;2023-04-28T13:33:19;15.40;71.00
8103;DHT22;4094;49.948;11.574;2023-04-28T13:35:49;15.40;71.00
8103;DHT22;4094;49.948;11.574;2023-04-28T13:38:18;15.40;70.80
8103;DHT22;4094;49.948;11.574;2023-04-28T13:40:48;15.40;70.80
8103;DHT22;4094;49.948;11.574;2023-04-28T13:43:17;15.50;71.00
8103;DHT22;4094;49.948;11.574;2023-04-28T13:45:46;15.50;70.80
8103;DHT22;4094;49.948;11.574;2023-04-28T13:48:15;15.50;70.70
8103;DHT22;4094;49.948;11.574;2023-04-28T13:50:46;15.50;70.70
8103;DHT22;4094;49.948;11.574;2023-04-28T13:53:16;15.50;70.80
8103;DHT22;4094;49.948;11.574;2023-04-28T13:55:45;15.50;70.80
8103;DHT22;4094;49.948;11.574;2023-04-28T13:58:17;15.50;70.70
8103;DHT22;4094;49.948;11.574;2023-04-28T14:00:46;15.50;70.80
8103;DHT22;4094;49.948;11.574;2023-04-28T14:03:15;15.50;70.80
8103;DHT22;4094;49.948;11.574;2023-04-28T14:05:47;15.50;70.80
8103;DHT22;4094;49.948;11.574;2023-04-28T14:08:17;15.50;70.80
8103;DHT22;4094;49.948;11.574;2023-04-28T14:10:48;15.50;70.70
8103;DHT22;4094;49.948;11.574;2023-04-28T14:13:18;15.50;71.00
8103;DHT22;4094;49.948;11.574;2023-04-28T14:15:47;15.40;71.00
8103;DHT22;4094;49.948;11.574;2023-04-28T14:18:27;15.40;71.00
8103;DHT22;4094;49.948;11.574;2023-04-28T14:20:58;15.40;71.10
8103;DHT22;4094;49.948;11.574;2023-04-28T14:23:28;15.40;71.20
8103;DHT22;4094;49.948;11.574;2023-04-28T14:25:58;15.40;71.90
8103;DHT22;4094;49.948;11.574;2023-04-28T14:28:27;15.40;71.20
8103;DHT22;4094;49.948;11.574;2023-04-28T14:30:56;15.40;71.20
8103;DHT22;4094;49.948;11.574;2023-04-28T14:33:26;15.40;71.20
8103;DHT22;4094;49.948;11.574;2023-04-28T14:35:55;15.50;71.70
8103;DHT22;4094;49.948;11.574;2023-04-28T14:38:25;15.50;72.40
8103;DHT22;4094;49.948;11.574;2023-04-28T14:40:55;15.50;71.80
8103;DHT22;4094;49.948;11.574;2023-04-28T14:43:24;15.50;71.70
8103;DHT22;4094;49.948;11.574;2023-04-28T14:45:53;15.50;72.00
8103;DHT22;4094;49.948;11.574;2023-04-28T14:48:23;15.50;71.80
8103;DHT22;4094;49.948;11.574;2023-04-28T14:50:52;15.50;71.80
8103;DHT22;4094;49.948;11.574;2023-04-28T14:53:22;15.50;71.90
8103;DHT22;4094;49.948;11.574;2023-04-28T14:55:52;15.50;72.30
8103;DHT22;4094;49.948;11.574;2023-04-28T14:58:34;15.40;72.30
8103;DHT22;4094;49.948;11.574;2023-04-28T15:01:03;15.40;72.10
8103;DHT22;4094;49.948;11.574;2023-04-28T15:03:33;15.40;72.30
8103;DHT22;4094;49.948;11.574;2023-04-28T15:06:03;15.50;72.40
8103;DHT22;4094;49.948;11.574;2023-04-28T15:08:32;15.40;72.40
8103;DHT22;4094;49.948;11.574;2023-04-28T15:11:03;15.50;72.50
8103;DHT22;4094;49.948;11.574;2023-04-28T15:13:32;15.50;72.60
8103;DHT22;4094;49.948;11.574;2023-04-28T15:16:01;15.50;72.70
8103;DHT22;4094;49.948;11.574;2023-04-28T15:18:31;15.50;72.70
8103;DHT22;4094;49.948;11.574;2023-04-28T15:21:00;15.50;72.60
8103;DHT22;4094;49.948;11.574;2023-04-28T15:23:30;15.60;72.90
8103;DHT22;4094;49.948;11.574;2023-04-28T15:25:59;15.60;72.80
8103;DHT22;4094;49.948;11.574;2023-04-28T15:28:30;15.60;72.90
8103;DHT22;4094;49.948;11.574;2023-04-28T15:30:59;15.60;72.90
8103;DHT22;4094;49.948;11.574;2023-04-28T15:33:28;15.60;72.90
8103;DHT22;4094;49.948;11.574;2023-04-28T15:35:57;15.60;72.90
8103;DHT22;4094;49.948;11.574;2023-04-28T15:38:26;15.60;72.80
8103;DHT22;4094;49.948;11.574;2023-04-28T15:40:58;15.60;72.90
8103;DHT22;4094;49.948;11.574;2023-04-28T15:43:27;15.60;72.90
8103;DHT22;4094;49.948;11.574;2023-04-28T15:45:58;15.60;72.90
8103;DHT22;4094;49.948;11.574;2023-04-28T15:48:27;15.60;72.90
8103;DHT22;4094;49.948;11.574;2023-04-28T15:50:56;15.60;72.90
8103;DHT22;4094;49.948;11.574;2023-04-28T15:53:26;15.60;72.90
8103;DHT22;4094;49.948;11.574;2023-04-28T15:55:56;15.60;72.90
8103;DHT22;4094;49.948;11.574;2023-04-28T15:58:25;15.60;72.90
8103;DHT22;4094;49.948;11.574;2023-04-28T16:00:54;15.60;73.10
8103;DHT22;4094;49.948;11.574;2023-04-28T16:03:25;15.60;73.10
8103;DHT22;4094;49.948;11.574;2023-04-28T16:05:55;15.60;73.10
8103;DHT22;4094;49.948;11.574;2023-04-28T16:08:24;15.70;73.20
8103;DHT22;4094;49.948;11.574;2023-04-28T16:10:54;15.70;73.30